Time;durP1;ratioP1;P1;durP2;ratioP2;P2;SDS_P1;SDS_P2;PMS_P1;PMS_P2;Temp;Humidity;BMP_temperature;BMP_pressure;BME280_temperature;BME280_humidity;BME280_pressure;Samples;Min_cycle;Max_cycle;Signal;HPM_P1;HPM_P2
2023/02/21 02:15:09;;;;;;;36.30;15.13;;;;;;;;;;5034895;28;20420;-71
2023/02/21 02:17:43;;;;;;;30.43;15.27;;;;;;;;;;5020231;28;20954;-70
2023/02/21 02:20:22;;;;;;;34.73;16.13;;;;;;;;;;5034541;28;20485;-71
2023/02/21 02:23:01;;;;;;;34.93;16.30;;;;;;;;;;5034006;28;20476;-70
2023/02/21 02:25:39;;;;;;;36.27;15.97;;;;;;;;;;5030704;28;20986;-71
2023/02/21 02:28:24;;;;;;;42.97;16.87;;;;;;;;;;5033788;28;20470;-71
2023/02/21 02:31:06;;;;;;;35.37;15.50;;;;;;;;;;5033812;28;20434;-71
2023/02/21 02:33:51;;;;;;;33.93;16.67;;;;;;;;;;5033682;28;20462;-69
2023/02/21 02:36:22;;;;;;;28.33;16.23;;;;;;;;;;5033320;28;20457;-70
2023/02/21 02:38:54;;;;;;;32.60;15.77;;;;;;;;;;5034436;28;20442;-69
2023/02/21 02:41:25;;;;;;;33.17;14.43;;;;;;;;;;5032871;28;20481;-70
2023/02/21 02:43:54;;;;;;;32.60;16.13;;;;;;;;;;5029338;28;20465;-70
2023/02/21 02:46:24;;;;;;;33.53;15.60;;;;;;;;;;5019873;28;20466;-70
2023/02/21 02:48:54;;;;;;;33.90;16.37;;;;;;;;;;5014443;28;20450;-71
2023/02/21 02:51:23;;;;;;;37.80;15.00;;;;;;;;;;5013787;28;20443;-70
2023/02/21 02:53:50;;;;;;;35.80;15.53;;;;;;;;;;5013905;28;20459;-71
2023/02/21 02:56:18;;;;;;;38.00;17.30;;;;;;;;;;5013725;28;20449;-72
2023/02/21 02:58:48;;;;;;;33.07;16.53;;;;;;;;;;5014026;28;20538;-70
2023/02/21 03:01:21;;;;;;;31.80;15.00;;;;;;;;;;5023689;28;20474;-70
2023/02/21 03:04:03;;;;;;;34.17;16.53;;;;;;;;;;5033769;28;20462;-70
2023/02/21 03:06:34;;;;;;;38.20;15.83;;;;;;;;;;5026505;28;20805;-70
2023/02/21 03:09:09;;;;;;;34.13;16.10;;;;;;;;;;5032421;28;20480;-70
2023/02/21 03:11:38;;;;;;;37.80;19.37;;;;;;;;;;5033761;28;20797;-71
2023/02/21 03:14:08;;;;;;;34.70;16.13;;;;;;;;;;5056629;23;20477;-69
2023/02/21 03:16:37;;;;;;;35.17;17.30;;;;;;;;;;5052425;28;20441;-69
2023/02/21 03:19:06;;;;;;;31.73;17.10;;;;;;;;;;5052052;28;20727;-69
2023/02/21 03:21:37;;;;;;;32.10;16.30;;;;;;;;;;5039175;28;20477;-69
2023/02/21 03:24:06;;;;;;;32.13;16.73;;;;;;;;;;5048006;28;20476;-69
2023/02/21 03:26:34;;;;;;;35.53;16.47;;;;;;;;;;5053334;28;20448;-68
2023/02/21 03:29:03;;;;;;;37.30;16.97;;;;;;;;;;5052670;28;20440;-69
2023/02/21 03:31:33;;;;;;;31.50;16.93;;;;;;;;;;5052327;28;20934;-68
2023/02/21 03:34:00;;;;;;;37.67;14.97;;;;;;;;;;5052049;28;21004;-68
2023/02/21 03:36:27;;;;;;;35.47;16.60;;;;;;;;;;5040918;28;21052;-69
2023/02/21 03:38:56;;;;;;;31.17;16.03;;;;;;;;;;5051826;28;20437;-69
2023/02/21 03:41:23;;;;;;;33.30;16.50;;;;;;;;;;5052534;28;20480;-69
2023/02/21 03:43:50;;;;;;;33.10;16.63;;;;;;;;;;5052698;28;20475;-68
2023/02/21 03:46:17;;;;;;;38.27;17.37;;;;;;;;;;5052213;28;20451;-68
2023/02/21 03:48:44;;;;;;;38.90;18.67;;;;;;;;;;5051209;28;21509;-68
2023/02/21 03:51:11;;;;;;;35.40;15.20;;;;;;;;;;5052484;28;20937;-69
2023/02/21 03:53:38;;;;;;;32.80;16.63;;;;;;;;;;5050943;28;20484;-69
2023/02/21 03:56:07;;;;;;;36.80;17.67;;;;;;;;;;5051854;28;20445;-68
2023/02/21 03:58:34;;;;;;;32.03;16.70;;;;;;;;;;5052156;28;20445;-69
2023/02/21 04:01:02;;;;;;;31.50;16.70;;;;;;;;;;5052741;28;20473;-69
2023/02/21 04:03:29;;;;;;;31.80;16.07;;;;;;;;;;5052300;28;20534;-69
2023/02/21 04:05:56;;;;;;;26.67;14.97;;;;;;;;;;5052693;28;20807;-69
2023/02/21 04:08:23;;;;;;;32.53;17.00;;;;;;;;;;5043272;28;20466;-68
2023/02/21 04:10:50;;;;;;;27.37;15.80;;;;;;;;;;5039558;28;20818;-68
2023/02/21 04:13:19;;;;;;;31.37;16.90;;;;;;;;;;5047209;28;20488;-69
2023/02/21 04:15:46;;;;;;;32.03;16.30;;;;;;;;;;5049900;28;20490;-68
2023/02/21 04:18:13;;;;;;;32.10;16.60;;;;;;;;;;5051905;28;20530;-68
2023/02/21 04:20:40;;;;;;;34.13;16.93;;;;;;;;;;5049839;28;20487;-69
2023/02/21 04:23:07;;;;;;;36.73;16.80;;;;;;;;;;5050140;28;20671;-68
2023/02/21 04:25:34;;;;;;;31.10;15.60;;;;;;;;;;5052108;28;20445;-69
2023/02/21 04:28:01;;;;;;;32.30;16.37;;;;;;;;;;5043023;28;20461;-69
2023/02/21 04:30:30;;;;;;;36.27;15.37;;;;;;;;;;5052127;28;20448;-69
2023/02/21 04:32:57;;;;;;;32.53;16.27;;;;;;;;;;5048526;28;20476;-68
2023/02/21 04:35:24;;;;;;;31.67;15.00;;;;;;;;;;5052024;28;20870;-68
2023/02/21 04:37:51;;;;;;;32.83;16.70;;;;;;;;;;5052240;28;20508;-68
2023/02/21 04:40:18;;;;;;;34.20;17.40;;;;;;;;;;5051893;28;20472;-68
2023/02/21 04:42:45;;;;;;;30.47;15.50;;;;;;;;;;5045154;28;20488;-69
2023/02/21 04:45:12;;;;;;;30.70;15.37;;;;;;;;;;5048393;28;20456;-69
2023/02/21 04:47:41;;;;;;;30.63;15.50;;;;;;;;;;5051786;28;20437;-69
2023/02/21 04:50:08;;;;;;;29.17;15.90;;;;;;;;;;5032063;28;20454;-69
2023/02/21 04:52:35;;;;;;;26.67;14.07;;;;;;;;;;5030970;28;20437;-69
2023/02/21 04:55:02;;;;;;;29.57;15.07;;;;;;;;;;5031533;28;20516;-69
2023/02/21 04:57:29;;;;;;;28.67;14.43;;;;;;;;;;5031376;28;20449;-69
2023/02/21 04:59:57;;;;;;;23.77;13.40;;;;;;;;;;5030471;28;20454;-69
2023/02/21 05:02:24;;;;;;;29.97;15.00;;;;;;;;;;5045165;28;20530;-69
2023/02/21 05:04:53;;;;;;;29.00;15.10;;;;;;;;;;5040254;28;20465;-68
2023/02/21 05:07:20;;;;;;;26.53;14.23;;;;;;;;;;5030816;28;20462;-68
2023/02/21 05:09:47;;;;;;;31.37;14.53;;;;;;;;;;5032022;28;21041;-69
2023/02/21 05:12:14;;;;;;;33.43;14.23;;;;;;;;;;5030938;28;20939;-68
2023/02/21 05:14:41;;;;;;;30.73;14.63;;;;;;;;;;5035549;28;20495;-68
2023/02/21 05:17:09;;;;;;;28.40;13.40;;;;;;;;;;5047749;28;20461;-68
2023/02/21 05:19:36;;;;;;;30.07;14.13;;;;;;;;;;5049478;28;20444;-69
2023/02/21 05:22:06;;;;;;;30.07;15.70;;;;;;;;;;5034428;28;20489;-68
2023/02/21 05:24:33;;;;;;;31.57;14.93;;;;;;;;;;5035556;28;20468;-69
2023/02/21 05:27:00;;;;;;;27.27;14.00;;;;;;;;;;5040972;28;20458;-69
2023/02/21 05:29:27;;;;;;;24.70;12.60;;;;;;;;;;5035720;28;20442;-69
2023/02/21 05:31:54;;;;;;;29.07;14.60;;;;;;;;;;5037756;28;20452;-68
2023/02/21 05:34:21;;;;;;;25.60;13.33;;;;;;;;;;5046636;28;20469;-69
2023/02/21 05:36:48;;;;;;;22.23;12.47;;;;;;;;;;5055329;28;20444;-68
2023/02/21 05:39:17;;;;;;;27.77;14.00;;;;;;;;;;5039986;28;20464;-69
2023/02/21 05:41:47;;;;;;;25.47;12.60;;;;;;;;;;5034862;28;20488;-69
2023/02/21 05:44:15;;;;;;;25.27;13.60;;;;;;;;;;5034460;28;20465;-68
2023/02/21 05:46:42;;;;;;;26.37;14.40;;;;;;;;;;5034134;28;20457;-69
2023/02/21 05:49:09;;;;;;;28.30;13.43;;;;;;;;;;5039578;28;20511;-69
2023/02/21 05:51:37;;;;;;;23.87;13.80;;;;;;;;;;5054543;28;20437;-69
2023/02/21 05:54:04;;;;;;;29.33;13.80;;;;;;;;;;5053299;28;20464;-69
2023/02/21 05:56:37;;;;;;;23.23;12.80;;;;;;;;;;5052813;28;20464;-69
2023/02/21 05:59:04;;;;;;;33.47;15.20;;;;;;;;;;5054759;28;20445;-69
2023/02/21 06:01:31;;;;;;;29.77;13.73;;;;;;;;;;5054456;28;20468;-69
2023/02/21 06:03:59;;;;;;;26.90;14.23;;;;;;;;;;5052609;28;21009;-69
2023/02/21 06:06:26;;;;;;;30.57;15.70;;;;;;;;;;5053341;28;20457;-70
2023/02/21 06:08:53;;;;;;;25.60;13.20;;;;;;;;;;5054614;28;20809;-69
2023/02/21 06:11:23;;;;;;;25.60;14.37;;;;;;;;;;5054077;28;20459;-69
2023/02/21 06:13:52;;;;;;;27.47;15.17;;;;;;;;;;5054453;28;20476;-69
2023/02/21 06:16:19;;;;;;;29.50;14.60;;;;;;;;;;5054655;28;20452;-69
2023/02/21 06:18:49;;;;;;;30.70;14.60;;;;;;;;;;5046702;28;20465;-68
2023/02/21 06:21:17;;;;;;;35.87;15.90;;;;;;;;;;5040017;28;20492;-69
2023/02/21 06:23:44;;;;;;;26.67;13.70;;;;;;;;;;5053575;28;20471;-68
2023/02/21 06:26:11;;;;;;;22.43;12.70;;;;;;;;;;5049231;28;20464;-69
2023/02/21 06:28:38;;;;;;;26.03;13.60;;;;;;;;;;5053987;28;20869;-68
2023/02/21 06:31:06;;;;;;;30.17;14.80;;;;;;;;;;5054065;28;20437;-69
2023/02/21 06:33:33;;;;;;;30.10;15.60;;;;;;;;;;5037236;28;20477;-68
2023/02/21 06:36:03;;;;;;;31.00;16.30;;;;;;;;;;5050707;28;20447;-68
2023/02/21 06:38:31;;;;;;;31.20;14.53;;;;;;;;;;5052040;28;20452;-69
2023/02/21 06:40:58;;;;;;;30.47;14.13;;;;;;;;;;5052278;28;20819;-68
2023/02/21 06:43:25;;;;;;;32.20;15.00;;;;;;;;;;5053714;28;20467;-69
2023/02/21 06:45:52;;;;;;;31.37;16.80;;;;;;;;;;5051538;28;20465;-68
2023/02/21 06:48:20;;;;;;;35.70;17.93;;;;;;;;;;5034914;28;20458;-69
2023/02/21 06:50:47;;;;;;;33.43;17.53;;;;;;;;;;5032936;28;20454;-69
2023/02/21 06:53:14;;;;;;;38.27;18.30;;;;;;;;;;5033537;28;20473;-68
2023/02/21 06:55:41;;;;;;;43.90;18.50;;;;;;;;;;5041396;28;20461;-69
2023/02/21 06:58:09;;;;;;;35.60;18.83;;;;;;;;;;5049597;28;20836;-69
2023/02/21 07:00:36;;;;;;;35.07;19.23;;;;;;;;;;5050159;28;20464;-69
2023/02/21 07:03:03;;;;;;;37.27;18.93;;;;;;;;;;5053315;28;20461;-69
2023/02/21 07:05:33;;;;;;;46.47;19.13;;;;;;;;;;5051195;28;20461;-69
2023/02/21 07:08:00;;;;;;;40.60;20.13;;;;;;;;;;5037154;28;20466;-69
2023/02/21 07:10:27;;;;;;;38.27;18.30;;;;;;;;;;5035541;28;20969;-69
2023/02/21 07:12:54;;;;;;;40.43;19.20;;;;;;;;;;5044686;28;20492;-68
2023/02/21 07:15:22;;;;;;;40.20;20.20;;;;;;;;;;5051479;28;20457;-69
2023/02/21 07:17:49;;;;;;;35.77;18.13;;;;;;;;;;5050532;28;20528;-69
2023/02/21 07:20:16;;;;;;;38.70;19.20;;;;;;;;;;5041030;28;20488;-69
2023/02/21 07:22:44;;;;;;;41.70;18.30;;;;;;;;;;5044810;28;20832;-69
2023/02/21 07:25:14;;;;;;;40.20;17.27;;;;;;;;;;5052780;28;20636;-68
2023/02/21 07:27:41;;;;;;;43.60;19.57;;;;;;;;;;5053520;28;20915;-68
2023/02/21 07:30:09;;;;;;;43.77;18.93;;;;;;;;;;5053148;28;20969;-68
2023/02/21 07:32:36;;;;;;;42.07;18.63;;;;;;;;;;5052864;28;20441;-68
2023/02/21 07:35:04;;;;;;;42.43;18.80;;;;;;;;;;5053514;28;20445;-68
2023/02/21 07:37:31;;;;;;;38.90;17.87;;;;;;;;;;5072957;28;20444;-68
2023/02/21 07:39:59;;;;;;;36.83;17.63;;;;;;;;;;5037862;28;20457;-68
2023/02/21 07:42:26;;;;;;;35.20;17.20;;;;;;;;;;5048818;28;20477;-68
2023/02/21 07:44:56;;;;;;;34.80;17.93;;;;;;;;;;5050099;28;20543;-68
2023/02/21 07:47:24;;;;;;;31.13;16.97;;;;;;;;;;5055910;28;20921;-68
2023/02/21 07:49:52;;;;;;;33.33;15.83;;;;;;;;;;5053293;28;20764;-68
2023/02/21 07:52:20;;;;;;;39.03;17.80;;;;;;;;;;5051089;28;20927;-68
2023/02/21 07:54:47;;;;;;;34.83;15.77;;;;;;;;;;5043808;28;20482;-67
2023/02/21 07:57:16;;;;;;;32.80;17.60;;;;;;;;;;5050838;28;20441;-67
2023/02/21 07:59:43;;;;;;;37.17;18.50;;;;;;;;;;5046888;28;20872;-67
2023/02/21 08:02:10;;;;;;;41.03;19.10;;;;;;;;;;5046558;28;20492;-67
2023/02/21 08:04:37;;;;;;;44.83;21.50;;;;;;;;;;5032518;28;20477;-67
2023/02/21 08:07:05;;;;;;;41.60;21.27;;;;;;;;;;5051261;28;20445;-67
2023/02/21 08:09:32;;;;;;;44.47;21.63;;;;;;;;;;5052423;28;20445;-68
2023/02/21 08:11:59;;;;;;;35.20;19.57;;;;;;;;;;5049987;28;20511;-67
2023/02/21 08:14:28;;;;;;;42.67;20.43;;;;;;;;;;5046264;28;20497;-67
2023/02/21 08:16:55;;;;;;;43.60;20.00;;;;;;;;;;5048552;28;20456;-67
2023/02/21 08:19:22;;;;;;;43.07;18.77;;;;;;;;;;5051923;28;20441;-68
2023/02/21 08:21:49;;;;;;;43.30;17.90;;;;;;;;;;5044690;28;20477;-68
2023/02/21 08:24:17;;;;;;;37.40;17.60;;;;;;;;;;5039114;28;20466;-72
2023/02/21 08:26:45;;;;;;;37.97;18.93;;;;;;;;;;5050242;28;20531;-70
2023/02/21 08:29:12;;;;;;;35.23;17.73;;;;;;;;;;5051993;28;20516;-70
2023/02/21 08:31:43;;;;;;;39.90;19.20;;;;;;;;;;5043806;28;20476;-70
2023/02/21 08:34:10;;;;;;;37.57;16.90;;;;;;;;;;5047912;28;21033;-70
2023/02/21 08:36:38;;;;;;;34.00;17.17;;;;;;;;;;5051646;28;20437;-70
2023/02/21 08:39:06;;;;;;;34.80;17.30;;;;;;;;;;5050167;28;20464;-70
2023/02/21 08:41:35;;;;;;;40.17;19.40;;;;;;;;;;5049386;28;20485;-70
2023/02/21 08:44:02;;;;;;;38.33;18.60;;;;;;;;;;5034400;28;20489;-70
2023/02/21 08:46:30;;;;;;;48.10;21.20;;;;;;;;;;5031396;28;20448;-70
2023/02/21 08:48:58;;;;;;;42.67;18.80;;;;;;;;;;5038665;28;20459;-69
2023/02/21 08:51:26;;;;;;;43.13;21.33;;;;;;;;;;5047501;28;20468;-69
2023/02/21 08:53:53;;;;;;;45.20;20.17;;;;;;;;;;5051758;28;20497;-68
2023/02/21 08:56:20;;;;;;;39.97;18.80;;;;;;;;;;5040073;28;20454;-68
2023/02/21 08:58:47;;;;;;;39.00;18.70;;;;;;;;;;5031698;28;20469;-69
2023/02/21 09:01:14;;;;;;;37.03;19.97;;;;;;;;;;5031305;28;20446;-70
2023/02/21 09:03:41;;;;;;;41.90;20.33;;;;;;;;;;5040308;28;20477;-69
2023/02/21 09:06:10;;;;;;;41.60;18.80;;;;;;;;;;5032646;28;20460;-69
2023/02/21 09:08:37;;;;;;;40.60;17.37;;;;;;;;;;5051540;28;20441;-70
2023/02/21 09:11:04;;;;;;;38.67;18.03;;;;;;;;;;5049967;28;20465;-71
2023/02/21 09:13:32;;;;;;;35.83;18.37;;;;;;;;;;5061261;23;20854;-69
2023/02/21 09:16:00;;;;;;;43.33;19.87;;;;;;;;;;5028326;28;20467;-69
2023/02/21 09:18:27;;;;;;;45.10;20.70;;;;;;;;;;5031344;28;20603;-71
2023/02/21 09:20:56;;;;;;;44.20;21.23;;;;;;;;;;5029418;28;20833;-70
2023/02/21 09:23:24;;;;;;;41.60;19.90;;;;;;;;;;5029497;28;20565;-71
2023/02/21 09:25:52;;;;;;;42.33;19.00;;;;;;;;;;5028707;28;20449;-71
2023/02/21 09:28:19;;;;;;;44.93;20.60;;;;;;;;;;5011660;28;20557;-72
2023/02/21 09:30:46;;;;;;;35.33;17.40;;;;;;;;;;5011708;28;20928;-72
2023/02/21 09:33:14;;;;;;;49.10;19.53;;;;;;;;;;5011327;28;20994;-71
2023/02/21 09:35:41;;;;;;;43.67;18.50;;;;;;;;;;5011276;28;20450;-71
2023/02/21 09:38:08;;;;;;;38.97;18.40;;;;;;;;;;5011590;28;20450;-71
2023/02/21 09:40:41;;;;;;;41.20;20.80;;;;;;;;;;5011418;28;20458;-70
2023/02/21 09:43:13;;;;;;;49.20;23.90;;;;;;;;;;5027636;28;20486;-71
2023/02/21 09:45:42;;;;;;;46.13;21.67;;;;;;;;;;5027941;28;20468;-72
2023/02/21 09:48:11;;;;;;;46.30;22.20;;;;;;;;;;5018542;28;20490;-69
2023/02/21 09:50:42;;;;;;;45.33;20.23;;;;;;;;;;5014051;28;20798;-70
2023/02/21 09:53:09;;;;;;;54.10;23.13;;;;;;;;;;5011337;28;20459;-69
2023/02/21 09:55:39;;;;;;;36.10;20.17;;;;;;;;;;5023265;28;20469;-70
2023/02/21 09:58:10;;;;;;;37.67;18.37;;;;;;;;;;5031143;28;20453;-70
2023/02/21 10:00:38;;;;;;;44.17;17.53;;;;;;;;;;5025336;28;20458;-71
2023/02/21 10:03:11;;;;;;;38.70;17.50;;;;;;;;;;5021610;28;20479;-70
2023/02/21 10:05:42;;;;;;;39.33;18.90;;;;;;;;;;5031388;28;20450;-70
2023/02/21 10:08:13;;;;;;;35.90;18.00;;;;;;;;;;5032035;28;20461;-70
2023/02/21 10:10:45;;;;;;;35.60;18.03;;;;;;;;;;5034850;28;20528;-70
2023/02/21 10:13:19;;;;;;;41.80;19.90;;;;;;;;;;5034079;28;20498;-69
2023/02/21 10:15:47;;;;;;;36.17;18.10;;;;;;;;;;5034890;28;20446;-73
2023/02/21 10:18:22;;;;;;;45.70;20.47;;;;;;;;;;5026724;28;20967;-69
2023/02/21 10:20:51;;;;;;;51.27;22.30;;;;;;;;;;5034591;28;20441;-70
2023/02/21 10:23:22;;;;;;;45.43;20.70;;;;;;;;;;5027840;28;20485;-72
2023/02/21 10:25:51;;;;;;;47.40;20.00;;;;;;;;;;5034365;28;20453;-72
2023/02/21 10:28:20;;;;;;;47.10;20.93;;;;;;;;;;5027714;28;20558;-71
2023/02/21 10:30:47;;;;;;;58.00;24.50;;;;;;;;;;5014340;28;20530;-72
2023/02/21 10:33:14;;;;;;;56.57;22.13;;;;;;;;;;5017171;28;20489;-73
2023/02/21 10:35:41;;;;;;;66.63;25.80;;;;;;;;;;5032141;28;20990;-71
2023/02/21 10:38:10;;;;;;;55.00;25.00;;;;;;;;;;5013933;28;20451;-72
2023/02/21 10:40:39;;;;;;;51.43;24.33;;;;;;;;;;5014568;28;20443;-72
2023/02/21 10:43:11;;;;;;;55.30;23.50;;;;;;;;;;5011957;28;20479;-73
2023/02/21 10:45:41;;;;;;;57.30;24.40;;;;;;;;;;5013799;28;20450;-72
2023/02/21 10:48:09;;;;;;;45.73;21.70;;;;;;;;;;5016384;28;20462;-71
2023/02/21 10:50:50;;;;;;;44.07;21.10;;;;;;;;;;5026761;28;20463;-72
2023/02/21 10:53:26;;;;;;;58.63;22.10;;;;;;;;;;5033697;28;20516;-72
2023/02/21 10:56:11;;;;;;;38.90;21.50;;;;;;;;;;5033862;28;20445;-74
2023/02/21 10:58:40;;;;;;;37.90;18.47;;;;;;;;;;5029261;28;20461;-71
2023/02/21 11:01:14;;;;;;;46.93;23.40;;;;;;;;;;5025306;28;20442;-70
2023/02/21 11:03:45;;;;;;;50.20;20.83;;;;;;;;;;5033455;28;21021;-74
2023/02/21 11:06:21;;;;;;;50.03;21.43;;;;;;;;;;5029437;28;20838;-74
2023/02/21 11:08:48;;;;;;;38.03;19.87;;;;;;;;;;5012540;28;20462;-71
2023/02/21 11:11:16;;;;;;;41.73;19.07;;;;;;;;;;5013466;28;20442;-72
2023/02/21 11:13:44;;;;;;;42.63;21.80;;;;;;;;;;5012622;28;20467;-72
2023/02/21 11:16:12;;;;;;;43.13;22.23;;;;;;;;;;5013510;28;20443;-72
2023/02/21 11:18:39;;;;;;;38.77;19.53;;;;;;;;;;5013160;28;20454;-70
2023/02/21 11:21:12;;;;;;;42.63;20.80;;;;;;;;;;5013771;28;20478;-70
2023/02/21 11:23:44;;;;;;;47.57;22.70;;;;;;;;;;5012573;28;20490;-71
2023/02/21 11:26:13;;;;;;;47.87;23.33;;;;;;;;;;5013552;28;20446;-70
2023/02/21 11:28:42;;;;;;;50.27;20.47;;;;;;;;;;5013420;28;20451;-72
2023/02/21 11:31:15;;;;;;;45.20;20.90;;;;;;;;;;5013233;28;20810;-71
2023/02/21 11:33:48;;;;;;;49.77;22.13;;;;;;;;;;5013251;28;20463;-71
2023/02/21 11:36:17;;;;;;;58.17;25.30;;;;;;;;;;5022693;28;20458;-70
2023/02/21 11:38:46;;;;;;;58.73;25.37;;;;;;;;;;5025615;28;20958;-70
2023/02/21 11:41:17;;;;;;;52.20;24.53;;;;;;;;;;5013057;28;20451;-71
2023/02/21 11:43:48;;;;;;;55.97;26.50;;;;;;;;;;5012118;28;20479;-70
2023/02/21 11:46:19;;;;;;;62.90;25.43;;;;;;;;;;5013299;28;20815;-70
2023/02/21 11:48:52;;;;;;;53.97;24.63;;;;;;;;;;5017974;28;20492;-70
2023/02/21 11:51:26;;;;;;;51.20;22.57;;;;;;;;;;5032516;28;20446;-70
2023/02/21 11:53:53;;;;;;;51.17;23.67;;;;;;;;;;5015155;28;20883;-70
2023/02/21 11:56:28;;;;;;;53.53;24.57;;;;;;;;;;5029603;28;20469;-70
2023/02/21 11:58:59;;;;;;;50.83;25.63;;;;;;;;;;5030071;28;20488;-71
2023/02/21 12:01:30;;;;;;;54.07;24.30;;;;;;;;;;5024497;28;20459;-71
2023/02/21 12:04:04;;;;;;;58.73;27.00;;;;;;;;;;5012650;28;20486;-72
2023/02/21 12:06:37;;;;;;;55.27;26.57;;;;;;;;;;5012249;28;20449;-70
2023/02/21 12:09:08;;;;;;;55.93;27.70;;;;;;;;;;5011434;28;20439;-69
2023/02/21 12:11:52;;;;;;;48.30;25.33;;;;;;;;;;5011726;28;20469;-71
2023/02/21 12:14:37;;;;;;;52.40;24.70;;;;;;;;;;5012435;28;20478;-70
2023/02/21 12:17:14;;;;;;;50.60;25.50;;;;;;;;;;5020995;28;20438;-71
2023/02/21 12:19:49;;;;;;;52.60;24.23;;;;;;;;;;5031975;28;20446;-70
2023/02/21 12:22:20;;;;;;;47.47;25.53;;;;;;;;;;5012235;28;20842;-71
2023/02/21 12:24:56;;;;;;;51.83;26.73;;;;;;;;;;5012659;28;20463;-70
2023/02/21 12:27:31;;;;;;;52.20;24.73;;;;;;;;;;5011458;28;20561;-71
2023/02/21 12:30:06;;;;;;;50.73;26.97;;;;;;;;;;5012019;28;20443;-70
2023/02/21 12:32:48;;;;;;;49.40;24.90;;;;;;;;;;5017337;28;20468;-75
2023/02/21 12:35:26;;;;;;;47.67;23.70;;;;;;;;;;5032227;28;20445;-71
2023/02/21 12:37:56;;;;;;;46.60;23.63;;;;;;;;;;5032032;28;20810;-75
2023/02/21 12:40:28;;;;;;;50.37;25.53;;;;;;;;;;5031740;28;20819;-73
2023/02/21 12:43:12;;;;;;;53.07;22.93;;;;;;;;;;5012182;28;20483;-75
2023/02/21 12:45:44;;;;;;;46.67;24.30;;;;;;;;;;5031813;28;20442;-73
2023/02/21 12:48:18;;;;;;;51.00;23.90;;;;;;;;;;5030770;28;20446;-71
2023/02/21 12:50:47;;;;;;;47.47;23.93;;;;;;;;;;5029350;28;20548;-74
2023/02/21 12:53:16;;;;;;;48.80;26.50;;;;;;;;;;5031828;28;20468;-75
2023/02/21 12:55:46;;;;;;;51.30;25.93;;;;;;;;;;5021718;28;20458;-72
2023/02/21 12:58:17;;;;;;;60.60;28.10;;;;;;;;;;5011331;28;20442;-72
2023/02/21 13:00:48;;;;;;;58.60;26.10;;;;;;;;;;5011136;28;20455;-73
2023/02/21 13:03:24;;;;;;;51.97;27.10;;;;;;;;;;5019980;28;20862;-73
2023/02/21 13:05:56;;;;;;;54.07;27.17;;;;;;;;;;5044108;28;20499;-73
2023/02/21 13:08:26;;;;;;;59.50;28.00;;;;;;;;;;5020938;28;20866;-72
2023/02/21 13:10:56;;;;;;;59.97;27.13;;;;;;;;;;5034977;28;20445;-72
2023/02/21 13:13:26;;;;;;;54.73;27.50;;;;;;;;;;5011416;28;20478;-72
2023/02/21 13:15:53;;;;;;;53.97;27.43;;;;;;;;;;5018488;28;21054;-73
2023/02/21 13:18:25;;;;;;;45.83;24.50;;;;;;;;;;5030837;28;20504;-71
2023/02/21 13:20:54;;;;;;;53.53;25.33;;;;;;;;;;5025950;28;20480;-72
2023/02/21 13:23:40;;;;;;;52.87;24.10;;;;;;;;;;5027388;28;20482;-72
2023/02/21 13:26:21;;;;;;;51.87;25.17;;;;;;;;;;5011145;28;20533;-73
2023/02/21 13:28:52;;;;;;;61.03;26.07;;;;;;;;;;5028023;28;20837;-72
2023/02/21 13:31:20;;;;;;;50.93;24.90;;;;;;;;;;5013036;28;20453;-73
2023/02/21 13:33:51;;;;;;;51.57;23.97;;;;;;;;;;5012825;28;20474;-72
2023/02/21 13:36:22;;;;;;;50.93;24.20;;;;;;;;;;5017690;28;20458;-71
2023/02/21 13:38:57;;;;;;;46.23;23.03;;;;;;;;;;5031206;28;20469;-71
2023/02/21 13:41:27;;;;;;;48.80;24.67;;;;;;;;;;5011946;28;20457;-72
2023/02/21 13:43:55;;;;;;;49.87;24.70;;;;;;;;;;5023946;28;20489;-73
2023/02/21 13:46:41;;;;;;;52.47;25.77;;;;;;;;;;5033297;28;20544;-73
2023/02/21 13:49:26;;;;;;;62.57;25.00;;;;;;;;;;5033127;28;20463;-72
2023/02/21 13:52:14;;;;;;;49.97;25.37;;;;;;;;;;5034152;28;20448;-75
2023/02/21 13:54:56;;;;;;;51.97;24.63;;;;;;;;;;5022490;28;20468;-71
2023/02/21 13:57:32;;;;;;;50.30;25.40;;;;;;;;;;5034007;28;20442;-70
2023/02/21 13:59:59;;;;;;;47.17;23.20;;;;;;;;;;5032865;28;20453;-72
2023/02/21 14:02:30;;;;;;;49.43;24.80;;;;;;;;;;5026503;28;20470;-70
2023/02/21 14:05:01;;;;;;;51.20;26.17;;;;;;;;;;5029219;28;20856;-70
2023/02/21 14:07:43;;;;;;;50.00;23.60;;;;;;;;;;5032766;28;20458;-72
2023/02/21 14:10:18;;;;;;;47.50;23.73;;;;;;;;;;5033696;28;20437;-71
2023/02/21 14:12:45;;;;;;;51.37;24.10;;;;;;;;;;5032458;28;20461;-71
2023/02/21 14:15:13;;;;;;;53.00;24.30;;;;;;;;;;5022982;28;20469;-69
2023/02/21 14:17:40;;;;;;;56.63;26.87;;;;;;;;;;5033863;28;20469;-72
2023/02/21 14:20:15;;;;;;;55.00;25.33;;;;;;;;;;5027887;28;20469;-71
2023/02/21 14:22:44;;;;;;;59.20;26.13;;;;;;;;;;5030838;28;20464;-72
2023/02/21 14:25:17;;;;;;;54.27;25.00;;;;;;;;;;5033211;28;20462;-72
2023/02/21 14:27:44;;;;;;;49.67;24.17;;;;;;;;;;5028769;28;20469;-72
2023/02/21 14:30:26;;;;;;;51.27;24.30;;;;;;;;;;5029796;28;20464;-70
2023/02/21 14:32:56;;;;;;;57.17;25.90;;;;;;;;;;5027843;28;20454;-71
2023/02/21 14:35:25;;;;;;;52.57;24.50;;;;;;;;;;5030842;28;20450;-70
2023/02/21 14:37:58;;;;;;;51.33;25.60;;;;;;;;;;5028417;28;20460;-72
2023/02/21 14:40:31;;;;;;;50.43;25.80;;;;;;;;;;5030203;28;20465;-71
2023/02/21 14:43:09;;;;;;;50.33;23.47;;;;;;;;;;5033008;28;21017;-72
2023/02/21 14:45:39;;;;;;;54.43;25.03;;;;;;;;;;5033023;28;20980;-72
2023/02/21 14:48:21;;;;;;;56.83;25.03;;;;;;;;;;5033962;28;20442;-72
2023/02/21 14:51:05;;;;;;;52.27;25.20;;;;;;;;;;5028831;28;20458;-72
2023/02/21 14:53:43;;;;;;;50.30;24.57;;;;;;;;;;5024817;28;20474;-73
2023/02/21 14:56:29;;;;;;;48.47;23.10;;;;;;;;;;5031897;28;20454;-72
2023/02/21 14:59:06;;;;;;;51.20;26.00;;;;;;;;;;5033280;28;20456;-70
2023/02/21 15:01:40;;;;;;;54.47;24.87;;;;;;;;;;5032558;28;20453;-71
2023/02/21 15:04:13;;;;;;;54.17;23.83;;;;;;;;;;5033332;28;20477;-71
2023/02/21 15:06:41;;;;;;;57.57;25.00;;;;;;;;;;5030546;28;20492;-71
2023/02/21 15:09:14;;;;;;;45.37;22.20;;;;;;;;;;5031281;28;20465;-71
2023/02/21 15:11:42;;;;;;;51.00;25.47;;;;;;;;;;5033001;28;20453;-71
2023/02/21 15:14:13;;;;;;;59.37;25.80;;;;;;;;;;5044059;22;21059;-73
2023/02/21 15:16:41;;;;;;;49.90;23.77;;;;;;;;;;5029015;28;20504;-70
2023/02/21 15:19:19;;;;;;;59.90;27.40;;;;;;;;;;5026449;28;20465;-71
2023/02/21 15:21:46;;;;;;;57.73;24.53;;;;;;;;;;5028221;28;20434;-72
2023/02/21 15:24:17;;;;;;;50.57;25.10;;;;;;;;;;5022516;28;20490;-69
2023/02/21 15:26:44;;;;;;;53.60;23.20;;;;;;;;;;5021572;28;20552;-69
2023/02/21 15:29:13;;;;;;;55.47;24.10;;;;;;;;;;5027432;28;20458;-71
2023/02/21 15:31:42;;;;;;;47.67;22.87;;;;;;;;;;5027315;28;20442;-69
2023/02/21 15:34:17;;;;;;;49.77;23.77;;;;;;;;;;5027420;28;20866;-69
2023/02/21 15:36:44;;;;;;;54.30;23.37;;;;;;;;;;5027722;28;20497;-69
2023/02/21 15:39:13;;;;;;;48.07;22.97;;;;;;;;;;5026200;28;20458;-71
2023/02/21 15:41:44;;;;;;;49.33;23.40;;;;;;;;;;5028116;28;20461;-71
2023/02/21 15:44:14;;;;;;;49.03;22.17;;;;;;;;;;5022038;28;20487;-68
2023/02/21 15:46:44;;;;;;;47.80;21.47;;;;;;;;;;5026684;28;20458;-71
2023/02/21 15:49:15;;;;;;;47.63;23.10;;;;;;;;;;5028478;28;20462;-69
2023/02/21 15:51:42;;;;;;;45.80;22.27;;;;;;;;;;5027385;28;20446;-69
2023/02/21 15:54:11;;;;;;;46.63;23.13;;;;;;;;;;5030009;28;20474;-69
2023/02/21 15:56:38;;;;;;;51.37;24.43;;;;;;;;;;5030745;28;20462;-69
2023/02/21 15:59:11;;;;;;;46.33;23.13;;;;;;;;;;5018577;28;20463;-69
2023/02/21 16:01:38;;;;;;;43.53;22.07;;;;;;;;;;5030382;28;20451;-69
2023/02/21 16:04:16;;;;;;;47.57;22.13;;;;;;;;;;5031623;28;20489;-70
2023/02/21 16:06:46;;;;;;;45.80;22.33;;;;;;;;;;5020191;28;20470;-67
2023/02/21 16:09:23;;;;;;;48.33;22.50;;;;;;;;;;5025776;28;20458;-79
2023/02/21 16:11:51;;;;;;;44.43;21.80;;;;;;;;;;5026085;28;20434;-82
2023/02/21 16:14:22;;;;;;;48.53;22.90;;;;;;;;;;5029404;28;20458;-80
2023/02/21 16:16:52;;;;;;;41.93;20.07;;;;;;;;;;5029481;28;20441;-81
2023/02/21 16:19:20;;;;;;;48.10;20.73;;;;;;;;;;5029637;28;20446;-78
2023/02/21 16:21:48;;;;;;;46.07;21.70;;;;;;;;;;5029060;28;20449;-81
2023/02/21 16:24:17;;;;;;;45.00;22.57;;;;;;;;;;5028945;28;20513;-81
2023/02/21 16:26:59;;;;;;;38.23;18.13;;;;;;;;;;5027535;28;20465;-81
2023/02/21 16:29:28;;;;;;;45.20;20.53;;;;;;;;;;5029342;28;20446;-81
2023/02/21 16:31:55;;;;;;;45.50;19.77;;;;;;;;;;5028036;28;20942;-81
2023/02/21 16:34:23;;;;;;;48.30;22.00;;;;;;;;;;5028221;28;20470;-81
2023/02/21 16:36:53;;;;;;;57.63;23.40;;;;;;;;;;5024807;28;20450;-83
2023/02/21 16:39:20;;;;;;;49.10;21.83;;;;;;;;;;5021743;28;20465;-79
2023/02/21 16:41:47;;;;;;;52.33;24.00;;;;;;;;;;5027831;28;21064;-78
2023/02/21 16:44:14;;;;;;;51.90;24.23;;;;;;;;;;5029018;28;20497;-77
2023/02/21 16:46:44;;;;;;;61.53;27.17;;;;;;;;;;5015600;28;20463;-77